sensor_id;sensor_type;location;lat;lon;timestamp;temperature;humidity
75190;HTU21D;69198;44.694;37.790;2023-07-08T00:00:07;26.65;89.07
75190;HTU21D;69198;44.694;37.790;2023-07-08T00:01:14;26.66;89.08
75190;HTU21D;69198;44.694;37.790;2023-07-08T00:02:15;26.66;89.07
75190;HTU21D;69198;44.694;37.790;2023-07-08T00:03:17;26.67;89.11
75190;HTU21D;69198;44.694;37.790;2023-07-08T00:04:18;26.69;89.07
75190;HTU21D;69198;44.694;37.790;2023-07-08T00:05:21;26.70;89.07
75190;HTU21D;69198;44.694;37.790;2023-07-08T00:06:25;26.70;89.08
75190;HTU21D;69198;44.694;37.790;2023-07-08T00:07:27;26.71;89.04
75190;HTU21D;69198;44.694;37.790;2023-07-08T00:08:28;26.70;89.01
75190;HTU21D;69198;44.694;37.790;2023-07-08T00:09:28;26.72;89.02
75190;HTU21D;69198;44.694;37.790;2023-07-08T00:10:31;26.71;89.02
75190;HTU21D;69198;44.694;37.790;2023-07-08T00:11:32;26.70;89.02
75190;HTU21D;69198;44.694;37.790;2023-07-08T00:12:33;26.70;89.04
75190;HTU21D;69198;44.694;37.790;2023-07-08T00:13:34;26.70;89.09
75190;HTU21D;69198;44.694;37.790;2023-07-08T00:14:35;26.69;89.13
75190;HTU21D;69198;44.694;37.790;2023-07-08T00:15:37;26.69;89.15
75190;HTU21D;69198;44.694;37.790;2023-07-08T00:16:38;26.68;89.17
75190;HTU21D;69198;44.694;37.790;2023-07-08T00:17:39;26.68;89.19
75190;HTU21D;69198;44.694;37.790;2023-07-08T00:18:41;26.68;89.15
75190;HTU21D;69198;44.694;37.790;2023-07-08T00:19:42;26.67;89.19
75190;HTU21D;69198;44.694;37.790;2023-07-08T00:20:50;26.68;89.13
75190;HTU21D;69198;44.694;37.790;2023-07-08T00:21:51;26.66;89.20
75190;HTU21D;69198;44.694;37.790;2023-07-08T00:22:55;26.67;89.21
75190;HTU21D;69198;44.694;37.790;2023-07-08T00:23:55;26.66;89.19
75190;HTU21D;69198;44.694;37.790;2023-07-08T00:24:56;26.66;89.19
75190;HTU21D;69198;44.694;37.790;2023-07-08T00:25:57;26.66;89.16
75190;HTU21D;69198;44.694;37.790;2023-07-08T00:26:58;26.65;89.15
75190;HTU21D;69198;44.694;37.790;2023-07-08T00:27:59;26.66;89.09
75190;HTU21D;69198;44.694;37.790;2023-07-08T00:29:00;26.65;89.05
75190;HTU21D;69198;44.694;37.790;2023-07-08T00:30:04;26.65;89.06
75190;HTU21D;69198;44.694;37.790;2023-07-08T00:31:09;26.66;89.03
75190;HTU21D;69198;44.694;37.790;2023-07-08T00:32:14;26.64;89.00
75190;HTU21D;69198;44.694;37.790;2023-07-08T00:33:15;26.64;88.96
75190;HTU21D;69198;44.694;37.790;2023-07-08T00:34:17;26.64;88.89
75190;HTU21D;69198;44.694;37.790;2023-07-08T00:36:27;26.63;88.85
75190;HTU21D;69198;44.694;37.790;2023-07-08T00:37:28;26.63;88.77
75190;HTU21D;69198;44.694;37.790;2023-07-08T00:38:30;26.63;88.72
75190;HTU21D;69198;44.694;37.790;2023-07-08T00:39:32;26.63;88.64
75190;HTU21D;69198;44.694;37.790;2023-07-08T00:40:33;26.62;88.64
75190;HTU21D;69198;44.694;37.790;2023-07-08T00:41:37;26.63;88.60
75190;HTU21D;69198;44.694;37.790;2023-07-08T00:42:43;26.61;88.61
75190;HTU21D;69198;44.694;37.790;2023-07-08T00:43:53;26.61;88.60
75190;HTU21D;69198;44.694;37.790;2023-07-08T00:44:55;26.60;88.64
75190;HTU21D;69198;44.694;37.790;2023-07-08T00:46:25;26.62;88.62
75190;HTU21D;69198;44.694;37.790;2023-07-08T00:47:30;26.56;88.67
75190;HTU21D;69198;44.694;37.790;2023-07-08T00:48:33;26.56;88.64
75190;HTU21D;69198;44.694;37.790;2023-07-08T00:49:43;26.54;88.67
75190;HTU21D;69198;44.694;37.790;2023-07-08T00:50:45;26.54;88.74
75190;HTU21D;69198;44.694;37.790;2023-07-08T00:51:46;26.54;88.79
75190;HTU21D;69198;44.694;37.790;2023-07-08T00:52:47;26.53;88.83
75190;HTU21D;69198;44.694;37.790;2023-07-08T00:53:48;26.54;88.82
75190;HTU21D;69198;44.694;37.790;2023-07-08T00:54:53;26.53;88.87
75190;HTU21D;69198;44.694;37.790;2023-07-08T00:55:59;26.53;88.89
75190;HTU21D;69198;44.694;37.790;2023-07-08T00:57:02;26.53;88.95
75190;HTU21D;69198;44.694;37.790;2023-07-08T00:58:03;26.54;88.99
75190;HTU21D;69198;44.694;37.790;2023-07-08T00:59:08;26.54;89.04
75190;HTU21D;69198;44.694;37.790;2023-07-08T01:00:14;26.53;89.13
75190;HTU21D;69198;44.694;37.790;2023-07-08T01:01:20;26.52;89.28
75190;HTU21D;69198;44.694;37.790;2023-07-08T01:02:24;26.53;89.38
75190;HTU21D;69198;44.694;37.790;2023-07-08T01:03:27;26.51;89.47
75190;HTU21D;69198;44.694;37.790;2023-07-08T01:04:44;26.52;89.50
75190;HTU21D;69198;44.694;37.790;2023-07-08T01:05:48;26.48;89.59
75190;HTU21D;69198;44.694;37.790;2023-07-08T01:06:53;26.50;89.62
75190;HTU21D;69198;44.694;37.790;2023-07-08T01:08:00;26.49;89.66
75190;HTU21D;69198;44.694;37.790;2023-07-08T01:09:04;26.47;89.70
75190;HTU21D;69198;44.694;37.790;2023-07-08T01:10:08;26.49;89.68
75190;HTU21D;69198;44.694;37.790;2023-07-08T01:11:13;26.48;89.70
75190;HTU21D;69198;44.694;37.790;2023-07-08T01:12:22;26.49;89.67
75190;HTU21D;69198;44.694;37.790;2023-07-08T01:13:37;26.49;89.66
75190;HTU21D;69198;44.694;37.790;2023-07-08T01:14:42;26.47;89.66
75190;HTU21D;69198;44.694;37.790;2023-07-08T01:15:46;26.46;89.64
75190;HTU21D;69198;44.694;37.790;2023-07-08T01:16:47;26.47;89.66
75190;HTU21D;69198;44.694;37.790;2023-07-08T01:17:50;26.47;89.66
75190;HTU21D;69198;44.694;37.790;2023-07-08T01:18:54;26.47;89.66
75190;HTU21D;69198;44.694;37.790;2023-07-08T01:19:55;26.48;89.59
75190;HTU21D;69198;44.694;37.790;2023-07-08T01:21:02;26.48;89.53
75190;HTU21D;69198;44.694;37.790;2023-07-08T01:22:08;26.48;89.50
75190;HTU21D;69198;44.694;37.790;2023-07-08T01:23:10;26.48;89.43
75190;HTU21D;69198;44.694;37.790;2023-07-08T01:24:11;26.47;89.39
75190;HTU21D;69198;44.694;37.790;2023-07-08T01:25:13;26.48;89.34
75190;HTU21D;69198;44.694;37.790;2023-07-08T01:26:14;26.50;89.25
75190;HTU21D;69198;44.694;37.790;2023-07-08T01:27:18;26.50;89.19
75190;HTU21D;69198;44.694;37.790;2023-07-08T01:28:19;26.49;89.18
75190;HTU21D;69198;44.694;37.790;2023-07-08T01:29:22;26.49;89.14
75190;HTU21D;69198;44.694;37.790;2023-07-08T01:30:23;26.51;89.12
75190;HTU21D;69198;44.694;37.790;2023-07-08T01:31:25;26.50;89.12
75190;HTU21D;69198;44.694;37.790;2023-07-08T01:32:27;26.50;89.09
75190;HTU21D;69198;44.694;37.790;2023-07-08T01:33:28;26.49;89.08
75190;HTU21D;69198;44.694;37.790;2023-07-08T01:34:31;26.50;89.03
75190;HTU21D;69198;44.694;37.790;2023-07-08T01:35:33;26.50;88.99
75190;HTU21D;69198;44.694;37.790;2023-07-08T01:36:39;26.51;88.93
75190;HTU21D;69198;44.694;37.790;2023-07-08T01:37:49;26.50;88.93
75190;HTU21D;69198;44.694;37.790;2023-07-08T01:38:51;26.49;88.92
75190;HTU21D;69198;44.694;37.790;2023-07-08T01:39:52;26.48;88.91
75190;HTU21D;69198;44.694;37.790;2023-07-08T01:40:55;26.50;88.90
75190;HTU21D;69198;44.694;37.790;2023-07-08T01:41:57;26.49;88.89
75190;HTU21D;69198;44.694;37.790;2023-07-08T01:42:59;26.50;88.89
75190;HTU21D;69198;44.694;37.790;2023-07-08T01:44:00;26.50;88.85
75190;HTU21D;69198;44.694;37.790;2023-07-08T01:45:01;26.51;88.85
75190;HTU21D;69198;44.694;37.790;2023-07-08T01:46:03;26.50;88.83
75190;HTU21D;69198;44.694;37.790;2023-07-08T01:47:16;26.52;88.74
75190;HTU21D;69198;44.694;37.790;2023-07-08T01:48:22;26.50;88.83
75190;HTU21D;69198;44.694;37.790;2023-07-08T01:49:24;26.49;88.85
75190;HTU21D;69198;44.694;37.790;2023-07-08T01:50:26;26.49;88.86
75190;HTU21D;69198;44.694;37.790;2023-07-08T01:51:28;26.49;88.95
75190;HTU21D;69198;44.694;37.790;2023-07-08T01:52:30;26.49;88.96
75190;HTU21D;69198;44.694;37.790;2023-07-08T01:53:34;26.48;88.96
75190;HTU21D;69198;44.694;37.790;2023-07-08T01:54:36;26.48;88.96
75190;HTU21D;69198;44.694;37.790;2023-07-08T01:55:37;26.49;88.90
75190;HTU21D;69198;44.694;37.790;2023-07-08T01:56:38;26.48;88.89
75190;HTU21D;69198;44.694;37.790;2023-07-08T01:57:39;26.48;88.84
75190;HTU21D;69198;44.694;37.790;2023-07-08T01:58:40;26.49;88.76
75190;HTU21D;69198;44.694;37.790;2023-07-08T01:59:41;26.51;88.70
75190;HTU21D;69198;44.694;37.790;2023-07-08T02:00:42;26.50;88.64
75190;HTU21D;69198;44.694;37.790;2023-07-08T02:01:44;26.50;88.61
75190;HTU21D;69198;44.694;37.790;2023-07-08T02:02:45;26.50;88.57
75190;HTU21D;69198;44.694;37.790;2023-07-08T02:03:46;26.50;88.51
75190;HTU21D;69198;44.694;37.790;2023-07-08T02:04:48;26.51;88.51
75190;HTU21D;69198;44.694;37.790;2023-07-08T02:05:49;26.50;88.44
75190;HTU21D;69198;44.694;37.790;2023-07-08T02:06:58;26.52;88.35
75190;HTU21D;69198;44.694;37.790;2023-07-08T02:08:00;26.50;88.38
75190;HTU21D;69198;44.694;37.790;2023-07-08T02:09:00;26.52;88.31
75190;HTU21D;69198;44.694;37.790;2023-07-08T02:10:03;26.53;88.23
75190;HTU21D;69198;44.694;37.790;2023-07-08T02:11:04;26.52;88.17
75190;HTU21D;69198;44.694;37.790;2023-07-08T02:12:05;26.52;88.12
75190;HTU21D;69198;44.694;37.790;2023-07-08T02:13:06;26.53;88.05
75190;HTU21D;69198;44.694;37.790;2023-07-08T02:14:07;26.54;87.99
75190;HTU21D;69198;44.694;37.790;2023-07-08T02:15:09;26.54;87.96
75190;HTU21D;69198;44.694;37.790;2023-07-08T02:16:10;26.53;87.93
75190;HTU21D;69198;44.694;37.790;2023-07-08T02:17:11;26.54;87.83
75190;HTU21D;69198;44.694;37.790;2023-07-08T02:18:15;26.55;87.72
75190;HTU21D;69198;44.694;37.790;2023-07-08T02:19:16;26.54;87.60
75190;HTU21D;69198;44.694;37.790;2023-07-08T02:20:17;26.56;87.46
75190;HTU21D;69198;44.694;37.790;2023-07-08T02:21:19;26.56;87.32
75190;HTU21D;69198;44.694;37.790;2023-07-08T02:22:19;26.57;87.25
75190;HTU21D;69198;44.694;37.790;2023-07-08T02:23:20;26.57;87.14
75190;HTU21D;69198;44.694;37.790;2023-07-08T02:24:22;26.57;87.09
75190;HTU21D;69198;44.694;37.790;2023-07-08T02:25:23;26.60;87.00
75190;HTU21D;69198;44.694;37.790;2023-07-08T02:26:24;26.62;86.98
75190;HTU21D;69198;44.694;37.790;2023-07-08T02:27:26;26.61;86.94
75190;HTU21D;69198;44.694;37.790;2023-07-08T02:28:26;26.63;86.93
75190;HTU21D;69198;44.694;37.790;2023-07-08T02:29:27;26.63;86.94
75190;HTU21D;69198;44.694;37.790;2023-07-08T02:30:30;26.64;86.92
75190;HTU21D;69198;44.694;37.790;2023-07-08T02:31:31;26.66;86.92
75190;HTU21D;69198;44.694;37.790;2023-07-08T02:32:32;26.67;86.93
75190;HTU21D;69198;44.694;37.790;2023-07-08T02:33:36;26.68;86.92
75190;HTU21D;69198;44.694;37.790;2023-07-08T02:34:37;26.68;86.93
75190;HTU21D;69198;44.694;37.790;2023-07-08T02:35:38;26.69;86.98
75190;HTU21D;69198;44.694;37.790;2023-07-08T02:36:39;26.70;86.96
75190;HTU21D;69198;44.694;37.790;2023-07-08T02:37:40;26.71;86.96
75190;HTU21D;69198;44.694;37.790;2023-07-08T02:38:41;26.72;86.97
75190;HTU21D;69198;44.694;37.790;2023-07-08T02:39:42;26.73;86.96
75190;HTU21D;69198;44.694;37.790;2023-07-08T02:40:44;26.73;87.02
75190;HTU21D;69198;44.694;37.790;2023-07-08T02:41:45;26.73;87.08
75190;HTU21D;69198;44.694;37.790;2023-07-08T02:42:46;26.77;87.08
75190;HTU21D;69198;44.694;37.790;2023-07-08T02:43:47;26.78;87.11
75190;HTU21D;69198;44.694;37.790;2023-07-08T02:44:47;26.78;87.09
75190;HTU21D;69198;44.694;37.790;2023-07-08T02:45:50;26.81;87.13
75190;HTU21D;69198;44.694;37.790;2023-07-08T02:46:51;26.81;87.10
75190;HTU21D;69198;44.694;37.790;2023-07-08T02:47:52;26.83;87.09
75190;HTU21D;69198;44.694;37.790;2023-07-08T02:48:54;26.85;87.00
75190;HTU21D;69198;44.694;37.790;2023-07-08T02:49:55;26.85;86.96
75190;HTU21D;69198;44.694;37.790;2023-07-08T02:51:03;26.89;86.82
75190;HTU21D;69198;44.694;37.790;2023-07-08T02:52:05;26.87;86.82
75190;HTU21D;69198;44.694;37.790;2023-07-08T02:53:06;26.90;86.76
75190;HTU21D;69198;44.694;37.790;2023-07-08T02:54:07;26.92;86.72
75190;HTU21D;69198;44.694;37.790;2023-07-08T02:55:08;26.94;86.69
75190;HTU21D;69198;44.694;37.790;2023-07-08T02:56:09;26.95;86.66
75190;HTU21D;69198;44.694;37.790;2023-07-08T02:57:10;26.95;86.67
75190;HTU21D;69198;44.694;37.790;2023-07-08T02:58:11;26.97;86.63
75190;HTU21D;69198;44.694;37.790;2023-07-08T02:59:13;26.99;86.63
75190;HTU21D;69198;44.694;37.790;2023-07-08T03:00:14;27.01;86.61
75190;HTU21D;69198;44.694;37.790;2023-07-08T03:01:15;27.02;86.68
75190;HTU21D;69198;44.694;37.790;2023-07-08T03:02:19;27.02;86.72
75190;HTU21D;69198;44.694;37.790;2023-07-08T03:03:20;27.05;86.71
75190;HTU21D;69198;44.694;37.790;2023-07-08T03:04:21;27.07;86.72
75190;HTU21D;69198;44.694;37.790;2023-07-08T03:05:23;27.08;86.72
75190;HTU21D;69198;44.694;37.790;2023-07-08T03:06:23;27.09;86.76
75190;HTU21D;69198;44.694;37.790;2023-07-08T03:07:25;27.11;86.77
75190;HTU21D;69198;44.694;37.790;2023-07-08T03:08:26;27.12;86.76
75190;HTU21D;69198;44.694;37.790;2023-07-08T03:09:27;27.14;86.71
75190;HTU21D;69198;44.694;37.790;2023-07-08T03:10:29;27.15;86.67
75190;HTU21D;69198;44.694;37.790;2023-07-08T03:11:30;27.15;86.61
75190;HTU21D;69198;44.694;37.790;2023-07-08T03:12:31;27.15;86.57
75190;HTU21D;69198;44.694;37.790;2023-07-08T03:13:33;27.16;86.51
75190;HTU21D;69198;44.694;37.790;2023-07-08T03:14:36;27.17;86.40
75190;HTU21D;69198;44.694;37.790;2023-07-08T03:15:37;27.19;86.35
75190;HTU21D;69198;44.694;37.790;2023-07-08T03:16:38;27.23;86.30
75190;HTU21D;69198;44.694;37.790;2023-07-08T03:17:39;27.23;86.22
75190;HTU21D;69198;44.694;37.790;2023-07-08T03:18:41;27.25;86.16
75190;HTU21D;69198;44.694;37.790;2023-07-08T03:19:49;27.27;86.06
75190;HTU21D;69198;44.694;37.790;2023-07-08T03:20:50;27.28;85.93
75190;HTU21D;69198;44.694;37.790;2023-07-08T03:21:52;27.31;85.86
75190;HTU21D;69198;44.694;37.790;2023-07-08T03:22:53;27.34;85.75
75190;HTU21D;69198;44.694;37.790;2023-07-08T03:23:54;27.34;85.65
75190;HTU21D;69198;44.694;37.790;2023-07-08T03:24:55;27.35;85.59
75190;HTU21D;69198;44.694;37.790;2023-07-08T03:25:56;27.37;85.50
75190;HTU21D;69198;44.694;37.790;2023-07-08T03:26:58;27.37;85.39
75190;HTU21D;69198;44.694;37.790;2023-07-08T03:28:01;27.38;85.31
75190;HTU21D;69198;44.694;37.790;2023-07-08T03:29:02;27.40;85.27
75190;HTU21D;69198;44.694;37.790;2023-07-08T03:30:05;27.40;85.26
75190;HTU21D;69198;44.694;37.790;2023-07-08T03:31:09;27.39;85.26
75190;HTU21D;69198;44.694;37.790;2023-07-08T03:32:12;27.40;85.20
75190;HTU21D;69198;44.694;37.790;2023-07-08T03:33:15;27.41;85.11
75190;HTU21D;69198;44.694;37.790;2023-07-08T03:34:16;27.43;85.03
75190;HTU21D;69198;44.694;37.790;2023-07-08T03:35:17;27.44;84.96
75190;HTU21D;69198;44.694;37.790;2023-07-08T03:36:18;27.47;84.84
75190;HTU21D;69198;44.694;37.790;2023-07-08T03:37:26;27.52;84.71
75190;HTU21D;69198;44.694;37.790;2023-07-08T03:38:27;27.57;84.43
75190;HTU21D;69198;44.694;37.790;2023-07-08T03:39:28;27.59;84.21
75190;HTU21D;69198;44.694;37.790;2023-07-08T03:40:29;27.61;84.10
75190;HTU21D;69198;44.694;37.790;2023-07-08T03:41:30;27.63;84.03
75190;HTU21D;69198;44.694;37.790;2023-07-08T03:42:33;27.63;84.04
75190;HTU21D;69198;44.694;37.790;2023-07-08T03:43:35;27.63;84.00
75190;HTU21D;69198;44.694;37.790;2023-07-08T03:44:36;27.64;83.97
75190;HTU21D;69198;44.694;37.790;2023-07-08T03:45:37;27.65;83.99
75190;HTU21D;69198;44.694;37.790;2023-07-08T03:46:39;27.65;84.00
75190;HTU21D;69198;44.694;37.790;2023-07-08T03:47:44;27.66;83.99
75190;HTU21D;69198;44.694;37.790;2023-07-08T03:48:47;27.64;84.00
75190;HTU21D;69198;44.694;37.790;2023-07-08T03:49:49;27.61;84.04
75190;HTU21D;69198;44.694;37.790;2023-07-08T03:50:49;27.58;84.07
75190;HTU21D;69198;44.694;37.790;2023-07-08T03:51:54;27.58;84.12
75190;HTU21D;69198;44.694;37.790;2023-07-08T03:52:55;27.56;84.19
75190;HTU21D;69198;44.694;37.790;2023-07-08T03:54:01;27.55;84.21
75190;HTU21D;69198;44.694;37.790;2023-07-08T03:55:11;27.56;84.10
75190;HTU21D;69198;44.694;37.790;2023-07-08T03:56:13;27.54;83.98
75190;HTU21D;69198;44.694;37.790;2023-07-08T03:57:14;27.53;83.91
75190;HTU21D;69198;44.694;37.790;2023-07-08T03:58:16;27.53;83.84
75190;HTU21D;69198;44.694;37.790;2023-07-08T03:59:18;27.54;83.79
75190;HTU21D;69198;44.694;37.790;2023-07-08T04:00:21;27.53;83.74
75190;HTU21D;69198;44.694;37.790;2023-07-08T04:01:23;27.55;83.71
75190;HTU21D;69198;44.694;37.790;2023-07-08T04:02:25;27.56;83.70
75190;HTU21D;69198;44.694;37.790;2023-07-08T04:03:26;27.57;83.67
75190;HTU21D;69198;44.694;37.790;2023-07-08T04:04:27;27.59;83.63
75190;HTU21D;69198;44.694;37.790;2023-07-08T04:05:28;27.61;83.63
75190;HTU21D;69198;44.694;37.790;2023-07-08T04:06:28;27.64;83.64
75190;HTU21D;69198;44.694;37.790;2023-07-08T04:07:29;27.68;83.61
75190;HTU21D;69198;44.694;37.790;2023-07-08T04:08:30;27.73;83.53
75190;HTU21D;69198;44.694;37.790;2023-07-08T04:09:31;27.78;83.39
75190;HTU21D;69198;44.694;37.790;2023-07-08T04:10:32;27.80;83.32
75190;HTU21D;69198;44.694;37.790;2023-07-08T04:11:33;27.82;83.21
75190;HTU21D;69198;44.694;37.790;2023-07-08T04:12:35;27.81;83.12
75190;HTU21D;69198;44.694;37.790;2023-07-08T04:13:36;27.80;83.08
75190;HTU21D;69198;44.694;37.790;2023-07-08T04:14:36;27.81;83.05
75190;HTU21D;69198;44.694;37.790;2023-07-08T04:15:37;27.79;83.00
75190;HTU21D;69198;44.694;37.790;2023-07-08T04:16:43;27.78;82.90
75190;HTU21D;69198;44.694;37.790;2023-07-08T04:17:48;27.75;82.94
75190;HTU21D;69198;44.694;37.790;2023-07-08T04:18:49;27.75;82.87
75190;HTU21D;69198;44.694;37.790;2023-07-08T04:19:53;27.74;82.77
75190;HTU21D;69198;44.694;37.790;2023-07-08T04:20:57;27.76;82.75
75190;HTU21D;69198;44.694;37.790;2023-07-08T04:22:01;27.73;82.69
75190;HTU21D;69198;44.694;37.790;2023-07-08T04:23:02;27.70;82.68
75190;HTU21D;69198;44.694;37.790;2023-07-08T04:24:03;27.69;82.67
75190;HTU21D;69198;44.694;37.790;2023-07-08T04:25:04;27.65;82.52
75190;HTU21D;69198;44.694;37.790;2023-07-08T04:26:08;27.61;82.03
75190;HTU21D;69198;44.694;37.790;2023-07-08T04:27:16;27.60;81.74
75190;HTU21D;69198;44.694;37.790;2023-07-08T04:28:17;27.56;81.56
75190;HTU21D;69198;44.694;37.790;2023-07-08T04:29:20;27.53;81.48
75190;HTU21D;69198;44.694;37.790;2023-07-08T04:30:24;27.50;81.53
75190;HTU21D;69198;44.694;37.790;2023-07-08T04:31:25;27.45;81.49
75190;HTU21D;69198;44.694;37.790;2023-07-08T04:32:26;27.40;81.27
75190;HTU21D;69198;44.694;37.790;2023-07-08T04:33:27;27.35;80.93
75190;HTU21D;69198;44.694;37.790;2023-07-08T04:34:28;27.30;80.43
75190;HTU21D;69198;44.694;37.790;2023-07-08T04:35:29;27.26;80.19
75190;HTU21D;69198;44.694;37.790;2023-07-08T04:36:30;27.27;79.62
75190;HTU21D;69198;44.694;37.790;2023-07-08T04:37:31;27.26;78.66
75190;HTU21D;69198;44.694;37.790;2023-07-08T04:38:32;27.26;78.11
75190;HTU21D;69198;44.694;37.790;2023-07-08T04:39:37;27.36;77.55
75190;HTU21D;69198;44.694;37.790;2023-07-08T04:40:38;27.67;76.57
75190;HTU21D;69198;44.694;37.790;2023-07-08T04:41:40;28.01;75.61
75190;HTU21D;69198;44.694;37.790;2023-07-08T04:42:41;28.28;74.34
75190;HTU21D;69198;44.694;37.790;2023-07-08T04:43:42;28.45;73.64
75190;HTU21D;69198;44.694;37.790;2023-07-08T04:44:44;28.63;72.91
75190;HTU21D;69198;44.694;37.790;2023-07-08T04:45:48;28.80;72.26
75190;HTU21D;69198;44.694;37.790;2023-07-08T04:46:57;29.08;70.90
75190;HTU21D;69198;44.694;37.790;2023-07-08T04:47:58;29.38;69.44
75190;HTU21D;69198;44.694;37.790;2023-07-08T04:48:59;29.43;68.84
75190;HTU21D;69198;44.694;37.790;2023-07-08T04:50:01;29.31;68.43
75190;HTU21D;69198;44.694;37.790;2023-07-08T04:51:02;29.14;68.94
75190;HTU21D;69198;44.694;37.790;2023-07-08T04:52:04;28.98;69.16
75190;HTU21D;69198;44.694;37.790;2023-07-08T04:53:05;28.84;69.55
75190;HTU21D;69198;44.694;37.790;2023-07-08T04:54:07;28.72;69.68
75190;HTU21D;69198;44.694;37.790;2023-07-08T04:55:08;28.61;69.90
75190;HTU21D;69198;44.694;37.790;2023-07-08T04:56:10;28.52;69.96
75190;HTU21D;69198;44.694;37.790;2023-07-08T04:57:11;28.43;70.14
75190;HTU21D;69198;44.694;37.790;2023-07-08T04:58:12;28.39;70.32
75190;HTU21D;69198;44.694;37.790;2023-07-08T04:59:17;28.37;70.54
75190;HTU21D;69198;44.694;37.790;2023-07-08T05:00:19;28.32;70.78
75190;HTU21D;69198;44.694;37.790;2023-07-08T05:01:20;28.29;71.05
75190;HTU21D;69198;44.694;37.790;2023-07-08T05:02:21;28.28;71.06
75190;HTU21D;69198;44.694;37.790;2023-07-08T05:03:22;28.25;71.17
75190;HTU21D;69198;44.694;37.790;2023-07-08T05:04:23;28.21;71.26
75190;HTU21D;69198;44.694;37.790;2023-07-08T05:05:24;28.16;71.49
75190;HTU21D;69198;44.694;37.790;2023-07-08T05:06:25;28.16;71.64
75190;HTU21D;69198;44.694;37.790;2023-07-08T05:07:26;28.21;71.57
75190;HTU21D;69198;44.694;37.790;2023-07-08T05:08:27;28.21;71.60
75190;HTU21D;69198;44.694;37.790;2023-07-08T05:09:28;28.21;71.59
75190;HTU21D;69198;44.694;37.790;2023-07-08T05:10:29;28.23;71.29
75190;HTU21D;69198;44.694;37.790;2023-07-08T05:11:30;28.33;70.90
75190;HTU21D;69198;44.694;37.790;2023-07-08T05:12:31;28.47;70.29
75190;HTU21D;69198;44.694;37.790;2023-07-08T05:13:32;28.86;69.13
75190;HTU21D;69198;44.694;37.790;2023-07-08T05:14:33;29.26;68.10
75190;HTU21D;69198;44.694;37.790;2023-07-08T05:15:34;29.73;67.12
75190;HTU21D;69198;44.694;37.790;2023-07-08T05:16:36;29.92;66.33
75190;HTU21D;69198;44.694;37.790;2023-07-08T05:17:38;29.90;66.43
75190;HTU21D;69198;44.694;37.790;2023-07-08T05:18:39;29.81;66.75
75190;HTU21D;69198;44.694;37.790;2023-07-08T05:19:40;29.67;66.98
75190;HTU21D;69198;44.694;37.790;2023-07-08T05:20:42;29.52;67.29
75190;HTU21D;69198;44.694;37.790;2023-07-08T05:21:43;29.36;67.71
75190;HTU21D;69198;44.694;37.790;2023-07-08T05:22:46;29.19;68.31
75190;HTU21D;69198;44.694;37.790;2023-07-08T05:23:48;29.04;69.04
75190;HTU21D;69198;44.694;37.790;2023-07-08T05:24:52;28.93;69.65
75190;HTU21D;69198;44.694;37.790;2023-07-08T05:26:00;28.86;70.15
75190;HTU21D;69198;44.694;37.790;2023-07-08T05:27:01;28.83;70.54
75190;HTU21D;69198;44.694;37.790;2023-07-08T05:28:02;28.84;70.53
75190;HTU21D;69198;44.694;37.790;2023-07-08T05:29:03;28.85;70.46
75190;HTU21D;69198;44.694;37.790;2023-07-08T05:30:07;29.00;70.54
75190;HTU21D;69198;44.694;37.790;2023-07-08T05:31:09;29.45;69.64
75190;HTU21D;69198;44.694;37.790;2023-07-08T05:32:09;30.00;67.89
75190;HTU21D;69198;44.694;37.790;2023-07-08T05:33:10;30.53;66.24
75190;HTU21D;69198;44.694;37.790;2023-07-08T05:34:11;30.94;64.86
75190;HTU21D;69198;44.694;37.790;2023-07-08T05:35:12;31.35;63.70
75190;HTU21D;69198;44.694;37.790;2023-07-08T05:36:13;31.70;62.79
75190;HTU21D;69198;44.694;37.790;2023-07-08T05:37:14;32.04;61.87
75190;HTU21D;69198;44.694;37.790;2023-07-08T05:38:16;32.23;61.07
75190;HTU21D;69198;44.694;37.790;2023-07-08T05:39:17;32.41;60.73
75190;HTU21D;69198;44.694;37.790;2023-07-08T05:40:18;32.63;60.34
75190;HTU21D;69198;44.694;37.790;2023-07-08T05:41:19;32.74;59.64
75190;HTU21D;69198;44.694;37.790;2023-07-08T05:42:21;32.82;59.25
75190;HTU21D;69198;44.694;37.790;2023-07-08T05:43:22;32.90;58.96
75190;HTU21D;69198;44.694;37.790;2023-07-08T05:44:23;33.05;58.48
75190;HTU21D;69198;44.694;37.790;2023-07-08T05:45:24;33.16;57.84
75190;HTU21D;69198;44.694;37.790;2023-07-08T05:46:25;33.27;57.72
75190;HTU21D;69198;44.694;37.790;2023-07-08T05:47:26;33.44;57.13
75190;HTU21D;69198;44.694;37.790;2023-07-08T05:48:27;33.49;56.57
75190;HTU21D;69198;44.694;37.790;2023-07-08T05:49:28;33.56;56.26
75190;HTU21D;69198;44.694;37.790;2023-07-08T05:50:29;33.57;56.05
75190;HTU21D;69198;44.694;37.790;2023-07-08T05:51:30;33.62;56.18
75190;HTU21D;69198;44.694;37.790;2023-07-08T05:52:31;33.76;55.72
75190;HTU21D;69198;44.694;37.790;2023-07-08T05:53:32;33.79;55.63
75190;HTU21D;69198;44.694;37.790;2023-07-08T05:54:32;33.91;55.59
75190;HTU21D;69198;44.694;37.790;2023-07-08T05:55:33;34.06;55.03
75190;HTU21D;69198;44.694;37.790;2023-07-08T05:56:34;34.11;54.18
75190;HTU21D;69198;44.694;37.790;2023-07-08T05:57:35;34.02;54.41
75190;HTU21D;69198;44.694;37.790;2023-07-08T05:58:36;34.02;54.33
75190;HTU21D;69198;44.694;37.790;2023-07-08T05:59:38;34.09;54.18
75190;HTU21D;69198;44.694;37.790;2023-07-08T06:00:44;34.04;54.16
75190;HTU21D;69198;44.694;37.790;2023-07-08T06:01:45;34.04;54.13
75190;HTU21D;69198;44.694;37.790;2023-07-08T06:02:46;34.08;53.75
75190;HTU21D;69198;44.694;37.790;2023-07-08T06:03:47;33.97;53.74
75190;HTU21D;69198;44.694;37.790;2023-07-08T06:04:48;33.80;53.81
75190;HTU21D;69198;44.694;37.790;2023-07-08T06:05:49;33.75;54.10
75190;HTU21D;69198;44.694;37.790;2023-07-08T06:06:50;33.78;53.95
75190;HTU21D;69198;44.694;37.790;2023-07-08T06:07:51;33.75;54.07
75190;HTU21D;69198;44.694;37.790;2023-07-08T06:08:53;33.82;53.81
75190;HTU21D;69198;44.694;37.790;2023-07-08T06:09:54;33.83;53.50
75190;HTU21D;69198;44.694;37.790;2023-07-08T06:10:57;33.87;53.67
75190;HTU21D;69198;44.694;37.790;2023-07-08T06:11:58;33.93;53.62
75190;HTU21D;69198;44.694;37.790;2023-07-08T06:12:59;33.92;53.72
75190;HTU21D;69198;44.694;37.790;2023-07-08T06:14:00;33.93;53.57
75190;HTU21D;69198;44.694;37.790;2023-07-08T06:15:01;33.97;53.80
75190;HTU21D;69198;44.694;37.790;2023-07-08T06:16:02;34.11;53.67
75190;HTU21D;69198;44.694;37.790;2023-07-08T06:17:03;34.20;53.03
75190;HTU21D;69198;44.694;37.790;2023-07-08T06:18:04;34.11;52.85
75190;HTU21D;69198;44.694;37.790;2023-07-08T06:19:05;33.82;53.24
75190;HTU21D;69198;44.694;37.790;2023-07-08T06:20:07;33.31;54.10
75190;HTU21D;69198;44.694;37.790;2023-07-08T06:21:08;33.00;54.98
75190;HTU21D;69198;44.694;37.790;2023-07-08T06:22:09;32.79;55.72